createdAt,value
2017-06-19T00:00:10.084Z,1020.22
2017-06-19T00:01:20.070Z,1020.23
2017-06-19T00:02:30.336Z,1020.23
2017-06-19T00:03:39.658Z,1020.25
2017-06-19T00:04:49.919Z,1020.21
2017-06-19T00:05:59.870Z,1020.21
2017-06-19T00:07:09.820Z,1020.19
2017-06-19T00:08:18.829Z,1020.2
2017-06-19T00:09:28.153Z,1020.24
2017-06-19T00:10:37.159Z,1020.2
2017-06-19T00:11:47.106Z,1020.23
2017-06-19T00:12:57.374Z,1020.21
2017-06-19T00:14:07.321Z,1020.2
2017-06-19T00:15:17.584Z,1020.19
2017-06-19T00:16:27.886Z,1020.16
2017-06-19T00:17:38.148Z,1020.15
2017-06-19T00:18:48.413Z,1020.14
2017-06-19T00:19:58.367Z,1020.13
2017-06-19T00:21:08.636Z,1020.1
2017-06-19T00:22:18.902Z,1020.09
2017-06-19T00:23:28.861Z,1020.1
2017-06-19T00:24:38.807Z,1020.09
2017-06-19T00:25:48.759Z,1020.12
2017-06-19T00:26:59.022Z,1020.08
2017-06-19T00:28:08.977Z,1020.07
2017-06-19T00:29:19.241Z,1020.1
2017-06-19T00:30:29.193Z,1020.09
2017-06-19T00:31:39.461Z,1020.08
2017-06-19T00:32:49.417Z,1020.05
2017-06-19T00:33:59.369Z,1020.05
2017-06-19T00:35:09.318Z,1020.03
2017-06-19T00:36:19.266Z,1020.07
2017-06-19T00:37:28.903Z,1020.06
2017-06-19T00:38:38.847Z,1020.04
2017-06-19T00:39:49.111Z,1020.06
2017-06-19T00:40:58.749Z,1020.05
2017-06-19T00:42:09.015Z,1020.05
2017-06-19T00:43:18.983Z,1020.02
2017-06-19T00:44:29.247Z,1020.02
2017-06-19T00:45:39.238Z,1020.01
2017-06-19T00:46:48.879Z,1019.99
2017-06-19T00:47:58.515Z,1020.01
2017-06-19T00:49:08.149Z,1019.98
2017-06-19T00:50:18.127Z,1019.98
2017-06-19T00:51:28.076Z,1019.96
2017-06-19T00:52:38.346Z,1019.98
2017-06-19T00:53:48.290Z,1019.99
2017-06-19T00:54:58.241Z,1019.97
2017-06-19T00:56:07.872Z,1019.98
2017-06-19T00:57:17.820Z,1019.98
2017-06-19T00:58:28.089Z,1019.98
2017-06-19T00:59:38.037Z,1020.01
2017-06-19T01:00:48.307Z,1020.01
2017-06-19T01:01:58.573Z,1020
2017-06-19T01:03:08.830Z,1019.97
2017-06-19T01:04:19.118Z,1020
2017-06-19T01:05:29.384Z,1020.03
2017-06-19T01:06:39.648Z,1020.05
2017-06-19T01:07:49.915Z,1020.03
2017-06-19T01:08:59.547Z,1020.05
2017-06-19T01:10:09.502Z,1020.03
2017-06-19T01:11:19.770Z,1020.02
2017-06-19T01:12:29.407Z,1020.02
2017-06-19T01:13:39.677Z,1020.01
2017-06-19T01:14:49.943Z,1020.02
2017-06-19T01:15:59.887Z,1020.03
2017-06-19T01:17:10.158Z,1020.06
2017-06-19T01:18:20.108Z,1020.05
2017-06-19T01:19:30.371Z,1020.02
2017-06-19T01:20:40.005Z,1020.04
2017-06-19T01:21:50.268Z,1020.05
2017-06-19T01:23:00.223Z,1020.07
2017-06-19T01:24:10.175Z,1020.05
2017-06-19T01:25:20.446Z,1020.06
2017-06-19T01:26:30.395Z,1020.06
2017-06-19T01:27:40.344Z,1020.06
2017-06-19T01:28:50.608Z,1020.04
2017-06-19T01:30:00.625Z,1020.03
2017-06-19T01:31:09.954Z,1020.03
2017-06-19T01:32:19.597Z,1020.02
2017-06-19T01:33:29.860Z,1020
2017-06-19T01:34:40.124Z,1020
2017-06-19T01:35:49.761Z,1020
2017-06-19T01:37:00.033Z,1019.99
2017-06-19T01:38:09.980Z,1019.95
2017-06-19T01:39:19.929Z,1019.99
2017-06-19T01:40:29.880Z,1020
2017-06-19T01:41:40.141Z,1019.99
2017-06-19T01:42:50.088Z,1019.98
2017-06-19T01:44:00.361Z,1020.01
2017-06-19T01:45:10.315Z,1020
2017-06-19T01:46:20.581Z,1019.99
2017-06-19T01:47:30.848Z,1020.01
2017-06-19T01:48:41.112Z,1020
2017-06-19T01:49:51.100Z,1020
2017-06-19T01:51:01.051Z,1020.03
2017-06-19T01:52:10.997Z,1020.02
2017-06-19T01:53:20.949Z,1020.02
2017-06-19T01:54:30.897Z,1020.02
2017-06-19T01:55:41.182Z,1020.07
2017-06-19T01:56:51.151Z,1020.01
2017-06-19T01:58:01.454Z,1019.96
2017-06-19T01:59:10.776Z,1020
2017-06-19T02:00:20.724Z,1020.02
2017-06-19T02:01:30.684Z,1019.99
2017-06-19T02:02:40.948Z,1020
2017-06-19T02:03:50.901Z,1019.99
2017-06-19T02:05:01.166Z,1020.01
2017-06-19T02:06:11.431Z,1020.01
2017-06-19T02:07:21.381Z,1019.99
2017-06-19T02:08:31.335Z,1020.02
2017-06-19T02:09:41.602Z,1019.99
2017-06-19T02:10:51.232Z,1019.97
2017-06-19T02:12:01.496Z,1020
2017-06-19T02:13:11.761Z,1019.98
2017-06-19T02:14:22.029Z,1019.99
2017-06-19T02:15:32.293Z,1019.96
2017-06-19T02:16:41.608Z,1019.95
2017-06-19T02:17:51.597Z,1020
2017-06-19T02:19:01.858Z,1020.01
2017-06-19T02:20:11.805Z,1020
2017-06-19T02:21:21.762Z,1020.01
2017-06-19T02:22:32.025Z,1019.99
2017-06-19T02:23:42.300Z,1020.03
2017-06-19T02:24:52.565Z,1020.04
2017-06-19T02:26:02.201Z,1020.01
2017-06-19T02:27:12.148Z,1020.01
2017-06-19T02:28:22.094Z,1019.99
2017-06-19T02:29:32.063Z,1020.01
2017-06-19T02:30:41.704Z,1020.03
2017-06-19T02:31:51.655Z,1020.01
2017-06-19T02:33:01.922Z,1020.03
2017-06-19T02:34:11.900Z,1020.05
2017-06-19T02:35:22.168Z,1020.04
2017-06-19T02:36:32.114Z,1020.08
2017-06-19T02:37:41.754Z,1020.01
2017-06-19T02:38:52.068Z,1020.04
2017-06-19T02:40:02.025Z,1020.03
2017-06-19T02:41:12.297Z,1020.06
2017-06-19T02:42:21.933Z,1020.09
2017-06-19T02:43:31.891Z,1020.09
2017-06-19T02:44:42.151Z,1020.13
2017-06-19T02:45:51.473Z,1020.14
2017-06-19T02:47:01.145Z,1020.14
2017-06-19T02:48:11.100Z,1020.15
2017-06-19T02:49:20.431Z,1020.15
2017-06-19T02:50:30.067Z,1020.19
2017-06-19T02:51:40.338Z,1020.15
2017-06-19T02:52:50.596Z,1020.17
2017-06-19T02:54:00.862Z,1020.18
2017-06-19T02:55:10.500Z,1020.16
2017-06-19T02:56:20.462Z,1020.15
2017-06-19T02:57:30.727Z,1020.17
2017-06-19T02:58:40.677Z,1020.13
2017-06-19T02:59:50.943Z,1020.13
2017-06-19T03:01:00.894Z,1020.1
2017-06-19T03:02:10.842Z,1020.12
2017-06-19T03:03:20.793Z,1020.1
2017-06-19T03:04:30.744Z,1020.13
2017-06-19T03:05:41.011Z,1020.1
2017-06-19T03:06:51.283Z,1020.13
2017-06-19T03:08:01.241Z,1020.14
2017-06-19T03:09:10.880Z,1020.14
2017-06-19T03:10:20.514Z,1020.14
2017-06-19T03:11:30.472Z,1020.14
2017-06-19T03:12:40.421Z,1020.18
2017-06-19T03:13:50.686Z,1020.18
2017-06-19T03:15:00.634Z,1020.18
2017-06-19T03:16:10.592Z,1020.2
2017-06-19T03:17:20.857Z,1020.2
2017-06-19T03:18:30.806Z,1020.2
2017-06-19T03:19:40.440Z,1020.25
2017-06-19T03:20:50.702Z,1020.23
2017-06-19T03:22:00.658Z,1020.24
2017-06-19T03:23:10.614Z,1020.25
2017-06-19T03:24:20.565Z,1020.23
2017-06-19T03:25:30.825Z,1020.2
2017-06-19T03:26:41.090Z,1020.21
2017-06-19T03:27:51.043Z,1020.2
2017-06-19T03:29:00.683Z,1020.21
2017-06-19T03:30:10.936Z,1020.22
2017-06-19T03:31:20.572Z,1020.22
2017-06-19T03:32:30.842Z,1020.2
2017-06-19T03:33:41.104Z,1020.21
2017-06-19T03:34:50.744Z,1020.21
2017-06-19T03:36:00.701Z,1020.22
2017-06-19T03:37:10.333Z,1020.27
2017-06-19T03:38:20.598Z,1020.26
2017-06-19T03:39:30.548Z,1020.26
2017-06-19T03:40:40.501Z,1020.29
2017-06-19T03:41:50.455Z,1020.29
2017-06-19T03:43:00.097Z,1020.26
2017-06-19T03:44:10.052Z,1020.31
2017-06-19T03:45:20.000Z,1020.28
2017-06-19T03:46:29.958Z,1020.28
2017-06-19T03:47:40.224Z,1020.31
2017-06-19T03:48:50.544Z,1020.31
2017-06-19T03:50:00.806Z,1020.32
2017-06-19T03:51:10.447Z,1020.32
2017-06-19T03:52:20.398Z,1020.36
2017-06-19T03:53:30.343Z,1020.29
2017-06-19T03:54:40.611Z,1020.32
2017-06-19T03:55:50.561Z,1020.34
2017-06-19T03:57:00.518Z,1020.33
2017-06-19T03:58:10.502Z,1020.33
2017-06-19T03:59:20.764Z,1020.32
2017-06-19T04:00:30.407Z,1020.32
2017-06-19T04:01:40.707Z,1020.31
2017-06-19T04:02:50.971Z,1020.33
2017-06-19T04:04:00.916Z,1020.34
2017-06-19T04:05:11.182Z,1020.33
2017-06-19T04:06:21.447Z,1020.34
2017-06-19T04:07:31.411Z,1020.34
2017-06-19T04:08:41.680Z,1020.32
2017-06-19T04:09:51.972Z,1020.31
2017-06-19T04:11:01.917Z,1020.35
2017-06-19T04:12:11.868Z,1020.3
2017-06-19T04:13:21.821Z,1020.31
2017-06-19T04:14:31.772Z,1020.31
2017-06-19T04:15:42.037Z,1020.34
2017-06-19T04:16:52.297Z,1020.32
2017-06-19T04:18:02.254Z,1020.3
2017-06-19T04:19:12.205Z,1020.32
2017-06-19T04:20:21.850Z,1020.33
2017-06-19T04:21:31.505Z,1020.29
2017-06-19T04:22:41.465Z,1020.25
2017-06-19T04:23:51.417Z,1020.3
2017-06-19T04:25:01.724Z,1020.3
2017-06-19T04:26:11.991Z,1020.29
2017-06-19T04:27:21.623Z,1020.31
2017-06-19T04:28:31.577Z,1020.32
2017-06-19T04:29:41.208Z,1020.32
2017-06-19T04:30:50.849Z,1020.31
2017-06-19T04:32:00.803Z,1020.34
2017-06-19T04:33:11.068Z,1020.32
2017-06-19T04:34:21.332Z,1020.31
2017-06-19T04:35:30.683Z,1020.3
2017-06-19T04:36:40.630Z,1020.31
2017-06-19T04:37:50.886Z,1020.35
2017-06-19T04:39:01.153Z,1020.35
2017-06-19T04:40:11.109Z,1020.37
2017-06-19T04:41:21.064Z,1020.35
2017-06-19T04:42:31.022Z,1020.37
2017-06-19T04:43:41.288Z,1020.34
2017-06-19T04:44:50.916Z,1020.33
2017-06-19T04:46:00.864Z,1020.34
2017-06-19T04:47:11.132Z,1020.35
2017-06-19T04:48:20.772Z,1020.36
2017-06-19T04:49:30.724Z,1020.35
2017-06-19T04:50:40.676Z,1020.34
2017-06-19T04:51:50.636Z,1020.35
2017-06-19T04:53:00.274Z,1020.36
2017-06-19T04:54:10.223Z,1020.38
2017-06-19T04:55:19.891Z,1020.37
2017-06-19T04:56:29.873Z,1020.37
2017-06-19T04:57:40.136Z,1020.35
2017-06-19T04:58:50.409Z,1020.37
2017-06-19T05:00:00.672Z,1020.38
2017-06-19T05:01:10.625Z,1020.36
2017-06-19T05:02:19.944Z,1020.35
2017-06-19T05:03:29.898Z,1020.33
2017-06-19T05:04:39.536Z,1020.31
2017-06-19T05:05:49.162Z,1020.31
2017-06-19T05:06:59.110Z,1020.35
2017-06-19T05:08:09.065Z,1020.35
2017-06-19T05:09:19.335Z,1020.35
2017-06-19T05:10:29.292Z,1020.33
2017-06-19T05:11:39.249Z,1020.34
2017-06-19T05:12:49.204Z,1020.36
2017-06-19T05:13:59.473Z,1020.35
2017-06-19T05:15:09.462Z,1020.33
2017-06-19T05:16:19.409Z,1020.35
2017-06-19T05:17:29.674Z,1020.3
2017-06-19T05:18:39.943Z,1020.34
2017-06-19T05:19:49.576Z,1020.32
2017-06-19T05:20:59.839Z,1020.29
2017-06-19T05:22:09.792Z,1020.29
2017-06-19T05:23:20.063Z,1020.29
2017-06-19T05:24:29.721Z,1020.31
2017-06-19T05:25:39.993Z,1020.3
2017-06-19T05:26:49.946Z,1020.31
2017-06-19T05:28:00.214Z,1020.33
2017-06-19T05:29:09.848Z,1020.29
2017-06-19T05:30:19.795Z,1020.3
2017-06-19T05:31:29.431Z,1020.3
2017-06-19T05:32:39.693Z,1020.29
2017-06-19T05:33:49.957Z,1020.26
2017-06-19T05:34:59.910Z,1020.3
2017-06-19T05:36:09.860Z,1020.3
2017-06-19T05:37:20.134Z,1020.27
2017-06-19T05:38:30.393Z,1020.31
2017-06-19T05:39:40.665Z,1020.3
2017-06-19T05:40:50.618Z,1020.29
2017-06-19T05:42:00.574Z,1020.3
2017-06-19T05:43:10.837Z,1020.31
2017-06-19T05:44:21.097Z,1020.29
2017-06-19T05:45:31.045Z,1020.34
2017-06-19T05:46:41.311Z,1020.32
2017-06-19T05:47:51.578Z,1020.32
2017-06-19T05:49:01.524Z,1020.32
2017-06-19T05:50:11.471Z,1020.3
2017-06-19T05:51:21.421Z,1020.29
2017-06-19T05:52:31.685Z,1020.34
2017-06-19T05:53:41.951Z,1020.31
2017-06-19T05:54:51.583Z,1020.28
2017-06-19T05:56:01.844Z,1020.27
2017-06-19T05:57:11.792Z,1020.3
2017-06-19T05:58:22.063Z,1020.31
2017-06-19T05:59:32.031Z,1020.34
2017-06-19T06:00:42.302Z,1020.32
2017-06-19T06:01:52.260Z,1020.34
2017-06-19T06:03:02.211Z,1020.36
2017-06-19T06:04:12.474Z,1020.34
2017-06-19T06:05:22.737Z,1020.34
2017-06-19T06:06:32.687Z,1020.32
2017-06-19T06:07:42.642Z,1020.34
2017-06-19T06:08:52.602Z,1020.33
2017-06-19T06:10:02.874Z,1020.33
2017-06-19T06:11:12.511Z,1020.34
2017-06-19T06:12:22.460Z,1020.36
2017-06-19T06:13:32.725Z,1020.34
2017-06-19T06:14:42.680Z,1020.31
2017-06-19T06:15:52.635Z,1020.33
2017-06-19T06:17:02.599Z,1020.33
2017-06-19T06:18:12.236Z,1020.3
2017-06-19T06:19:22.511Z,1020.31
2017-06-19T06:20:32.463Z,1020.31
2017-06-19T06:21:42.106Z,1020.32
2017-06-19T06:22:51.746Z,1020.34
2017-06-19T06:24:01.388Z,1020.31
2017-06-19T06:25:10.711Z,1020.32
2017-06-19T06:26:20.983Z,1020.31
2017-06-19T06:27:31.255Z,1020.32
2017-06-19T06:28:41.517Z,1020.31
2017-06-19T06:29:51.460Z,1020.33
2017-06-19T06:31:00.784Z,1020.32
2017-06-19T06:32:10.731Z,1020.32
2017-06-19T06:33:20.998Z,1020.3
2017-06-19T06:34:30.951Z,1020.32
2017-06-19T06:35:40.910Z,1020.28
2017-06-19T06:36:50.862Z,1020.3
2017-06-19T06:38:01.128Z,1020.32
2017-06-19T06:39:10.762Z,1020.26
2017-06-19T06:40:20.713Z,1020.3
2017-06-19T06:41:30.661Z,1020.3
2017-06-19T06:42:40.940Z,1020.29
2017-06-19T06:43:50.923Z,1020.3
2017-06-19T06:45:01.191Z,1020.32
2017-06-19T06:46:11.493Z,1020.33
2017-06-19T06:47:21.135Z,1020.32
2017-06-19T06:48:30.770Z,1020.31
2017-06-19T06:49:40.716Z,1020.33
2017-06-19T06:50:50.978Z,1020.32
2017-06-19T06:52:00.615Z,1020.3
2017-06-19T06:53:10.882Z,1020.32
2017-06-19T06:54:21.148Z,1020.35
2017-06-19T06:55:31.101Z,1020.34
2017-06-19T06:56:41.057Z,1020.33
2017-06-19T06:57:51.321Z,1020.32
2017-06-19T06:59:00.957Z,1020.35
2017-06-19T07:00:11.223Z,1020.31
2017-06-19T07:01:21.175Z,1020.34
2017-06-19T07:02:31.154Z,1020.31
2017-06-19T07:03:41.422Z,1020.32
2017-06-19T07:04:51.375Z,1020.26
2017-06-19T07:06:01.321Z,1020.28
2017-06-19T07:07:11.584Z,1020.29
2017-06-19T07:08:21.220Z,1020.25
2017-06-19T07:09:30.848Z,1020.24
2017-06-19T07:10:41.112Z,1020.26
2017-06-19T07:11:51.386Z,1020.26
2017-06-19T07:13:01.336Z,1020.26
2017-06-19T07:14:11.608Z,1020.22
2017-06-19T07:15:21.564Z,1020.25
2017-06-19T07:16:31.513Z,1020.24
2017-06-19T07:17:41.783Z,1020.26
2017-06-19T07:18:52.047Z,1020.21
2017-06-19T07:20:01.682Z,1020.24
2017-06-19T07:21:11.640Z,1020.23
2017-06-19T07:22:21.910Z,1020.21
2017-06-19T07:23:32.186Z,1020.21
2017-06-19T07:24:42.450Z,1020.18
2017-06-19T07:25:52.391Z,1020.18
2017-06-19T07:27:02.653Z,1020.19
2017-06-19T07:28:12.289Z,1020.18
2017-06-19T07:29:22.548Z,1020.19
2017-06-19T07:30:32.809Z,1020.2
2017-06-19T07:31:42.760Z,1020.2
2017-06-19T07:32:53.035Z,1020.19
2017-06-19T07:34:03.302Z,1020.17
2017-06-19T07:35:13.569Z,1020.18
2017-06-19T07:36:23.514Z,1020.2
2017-06-19T07:37:33.473Z,1020.19
2017-06-19T07:38:43.732Z,1020.16
2017-06-19T07:39:53.685Z,1020.16
2017-06-19T07:41:03.951Z,1020.14
2017-06-19T07:42:14.220Z,1020.13
2017-06-19T07:43:24.168Z,1020.11
2017-06-19T07:44:33.494Z,1020.11
2017-06-19T07:45:43.460Z,1020.13
2017-06-19T07:46:53.732Z,1020.13
2017-06-19T07:48:03.372Z,1020.14
2017-06-19T07:49:13.325Z,1020.13
2017-06-19T07:50:22.959Z,1020.14
2017-06-19T07:51:32.597Z,1020.11
2017-06-19T07:52:42.554Z,1020.07
2017-06-19T07:53:52.190Z,1020.08
2017-06-19T07:55:02.143Z,1020.1
2017-06-19T07:56:11.782Z,1020.07
2017-06-19T07:57:21.733Z,1020.09
2017-06-19T07:58:31.687Z,1020.09
2017-06-19T07:59:41.634Z,1020.1
2017-06-19T08:00:51.587Z,1020.08
2017-06-19T08:02:01.857Z,1020.08
2017-06-19T08:03:12.125Z,1020.03
2017-06-19T08:04:21.793Z,1020.04
2017-06-19T08:05:31.744Z,1020.03
2017-06-19T08:06:42.012Z,1020.03
2017-06-19T08:07:51.979Z,1020
2017-06-19T08:09:02.258Z,1020.01
2017-06-19T08:10:12.216Z,1019.96
2017-06-19T08:11:22.173Z,1019.96
2017-06-19T08:12:32.442Z,1019.96
2017-06-19T08:13:42.704Z,1019.95
2017-06-19T08:14:52.972Z,1019.93
2017-06-19T08:16:02.605Z,1019.93
2017-06-19T08:17:12.249Z,1019.94
2017-06-19T08:18:21.894Z,1019.96
2017-06-19T08:19:31.536Z,1019.97
2017-06-19T08:20:41.800Z,1019.93
2017-06-19T08:21:51.757Z,1019.96
2017-06-19T08:23:01.735Z,1019.94
2017-06-19T08:24:12.003Z,1019.95
2017-06-19T08:25:21.959Z,1019.96
2017-06-19T08:26:31.917Z,1019.95
2017-06-19T08:27:41.880Z,1019.96
2017-06-19T08:28:52.152Z,1019.97
2017-06-19T08:30:02.422Z,1019.92
2017-06-19T08:31:12.064Z,1019.91
2017-06-19T08:32:22.335Z,1019.93
2017-06-19T08:33:32.617Z,1019.93
2017-06-19T08:34:42.573Z,1019.9
2017-06-19T08:35:52.211Z,1019.9
2017-06-19T08:37:01.852Z,1019.9
2017-06-19T08:38:11.808Z,1019.9
2017-06-19T08:39:22.082Z,1019.86
2017-06-19T08:40:32.346Z,1019.85
2017-06-19T08:41:42.291Z,1019.82
2017-06-19T08:42:52.239Z,1019.8
2017-06-19T08:44:02.198Z,1019.78
2017-06-19T08:45:12.459Z,1019.8
2017-06-19T08:46:22.725Z,1019.77
2017-06-19T08:47:32.677Z,1019.73
2017-06-19T08:48:42.942Z,1019.78
2017-06-19T08:49:53.209Z,1019.77
2017-06-19T08:51:03.157Z,1019.8
2017-06-19T08:52:12.794Z,1019.77
2017-06-19T08:53:21.801Z,1019.7
2017-06-19T08:54:31.756Z,1019.75
2017-06-19T08:55:42.022Z,1019.7
2017-06-19T08:56:51.978Z,1019.71
2017-06-19T08:58:02.251Z,1019.71
2017-06-19T08:59:11.891Z,1019.67
2017-06-19T09:00:21.835Z,1019.69
2017-06-19T09:01:32.100Z,1019.63
2017-06-19T09:02:42.369Z,1019.62
2017-06-19T09:03:52.018Z,1019.63
2017-06-19T09:05:01.971Z,1019.6
2017-06-19T09:06:12.233Z,1019.58
2017-06-19T09:07:22.498Z,1019.56
2017-06-19T09:08:32.456Z,1019.6
2017-06-19T09:09:42.092Z,1019.57
2017-06-19T09:10:51.729Z,1019.62
2017-06-19T09:12:01.687Z,1019.57
2017-06-19T09:13:11.330Z,1019.52
2017-06-19T09:14:20.962Z,1019.56
2017-06-19T09:15:30.913Z,1019.53
2017-06-19T09:16:40.874Z,1019.53
2017-06-19T09:17:50.519Z,1019.51
2017-06-19T09:19:00.474Z,1019.47
2017-06-19T09:20:10.741Z,1019.5
2017-06-19T09:21:20.695Z,1019.5
2017-06-19T09:22:30.647Z,1019.49
2017-06-19T09:23:40.923Z,1019.51
2017-06-19T09:24:50.877Z,1019.49
2017-06-19T09:25:59.888Z,1019.5
2017-06-19T09:27:10.163Z,1019.47
2017-06-19T09:28:20.112Z,1019.45
2017-06-19T09:29:30.381Z,1019.42
2017-06-19T09:30:39.706Z,1019.43
2017-06-19T09:31:49.964Z,1019.41
2017-06-19T09:32:59.920Z,1019.39
2017-06-19T09:34:10.190Z,1019.33
2017-06-19T09:35:20.462Z,1019.36
2017-06-19T09:36:29.788Z,1019.33
2017-06-19T09:37:40.054Z,1019.35
2017-06-19T09:38:50.322Z,1019.33
2017-06-19T09:40:00.589Z,1019.31
2017-06-19T09:41:10.854Z,1019.35
2017-06-19T09:42:21.121Z,1019.34
2017-06-19T09:43:30.761Z,1019.35
2017-06-19T09:44:41.023Z,1019.33
2017-06-19T09:45:50.662Z,1019.32
2017-06-19T09:47:00.618Z,1019.33
2017-06-19T09:48:10.912Z,1019.34
2017-06-19T09:49:21.176Z,1019.31
2017-06-19T09:50:31.139Z,1019.32
2017-06-19T09:51:41.084Z,1019.32
2017-06-19T09:52:50.722Z,1019.3
2017-06-19T09:54:00.356Z,1019.34
2017-06-19T09:55:09.993Z,1019.3
2017-06-19T09:56:19.952Z,1019.3
2017-06-19T09:57:29.276Z,1019.32
2017-06-19T09:58:39.229Z,1019.33
2017-06-19T09:59:48.868Z,1019.31
2017-06-19T10:00:59.144Z,1019.32
2017-06-19T10:02:09.413Z,1019.32
2017-06-19T10:03:19.681Z,1019.3
2017-06-19T10:04:29.314Z,1019.3
2017-06-19T10:05:39.577Z,1019.26
2017-06-19T10:06:49.844Z,1019.23
2017-06-19T10:07:59.489Z,1019.24
2017-06-19T10:09:09.760Z,1019.23
2017-06-19T10:10:19.397Z,1019.18
2017-06-19T10:11:29.667Z,1019.21
2017-06-19T10:12:39.622Z,1019.15
2017-06-19T10:13:49.885Z,1019.18
2017-06-19T10:14:59.536Z,1019.14
2017-06-19T10:16:09.801Z,1019.14
2017-06-19T10:17:19.783Z,1019.1
2017-06-19T10:18:30.048Z,1019.14
2017-06-19T10:19:40.318Z,1019.1
2017-06-19T10:20:50.273Z,1019.09
2017-06-19T10:22:00.224Z,1019.01
2017-06-19T10:23:10.178Z,1019.01
2017-06-19T10:24:20.478Z,1018.97
2017-06-19T10:25:30.432Z,1019
2017-06-19T10:26:40.706Z,1018.98
2017-06-19T10:27:50.971Z,1018.9
2017-06-19T10:29:00.297Z,1018.88
2017-06-19T10:30:10.248Z,1018.91
2017-06-19T10:31:20.530Z,1018.91
2017-06-19T10:32:30.804Z,1018.9
2017-06-19T10:33:41.063Z,1018.86
2017-06-19T10:34:51.326Z,1018.83
2017-06-19T10:36:00.964Z,1018.86
2017-06-19T10:37:11.237Z,1018.81
2017-06-19T10:38:21.182Z,1018.82
2017-06-19T10:39:31.447Z,1018.84
2017-06-19T10:40:41.401Z,1018.84
2017-06-19T10:41:51.356Z,1018.81
2017-06-19T10:43:01.627Z,1018.78
2017-06-19T10:44:11.584Z,1018.78
2017-06-19T10:45:21.554Z,1018.81
2017-06-19T10:46:31.513Z,1018.78
2017-06-19T10:47:41.469Z,1018.75
2017-06-19T10:48:51.423Z,1018.72
2017-06-19T10:50:01.693Z,1018.71
2017-06-19T10:51:11.330Z,1018.7
2017-06-19T10:52:21.288Z,1018.68
2017-06-19T10:53:31.550Z,1018.63
2017-06-19T10:54:41.505Z,1018.63
2017-06-19T10:55:51.454Z,1018.57
2017-06-19T10:57:01.089Z,1018.6
2017-06-19T10:58:11.385Z,1018.59
2017-06-19T10:59:21.023Z,1018.6
2017-06-19T11:00:30.662Z,1018.59
2017-06-19T11:01:40.935Z,1018.58
2017-06-19T11:02:51.205Z,1018.55
2017-06-19T11:04:01.487Z,1018.57
2017-06-19T11:05:11.753Z,1018.54
2017-06-19T11:06:21.709Z,1018.54
2017-06-19T11:07:31.659Z,1018.52
2017-06-19T11:08:40.983Z,1018.55
2017-06-19T11:09:51.249Z,1018.49
2017-06-19T11:11:00.877Z,1018.49
2017-06-19T11:12:10.510Z,1018.46
2017-06-19T11:13:20.774Z,1018.43
2017-06-19T11:14:30.724Z,1018.47
2017-06-19T11:15:40.364Z,1018.42
2017-06-19T11:16:50.632Z,1018.41
2017-06-19T11:18:00.900Z,1018.39
2017-06-19T11:19:10.858Z,1018.38
2017-06-19T11:20:20.809Z,1018.46
2017-06-19T11:21:31.074Z,1018.42
2017-06-19T11:22:40.711Z,1018.39
2017-06-19T11:23:50.365Z,1018.4
2017-06-19T11:25:00.627Z,1018.36
2017-06-19T11:26:10.265Z,1018.34
2017-06-19T11:27:20.224Z,1018.32
2017-06-19T11:28:30.489Z,1018.31
2017-06-19T11:29:40.760Z,1018.26
2017-06-19T11:30:50.397Z,1018.24
2017-06-19T11:32:00.345Z,1018.23
2017-06-19T11:33:09.985Z,1018.22
2017-06-19T11:34:19.320Z,1018.26
2017-06-19T11:35:29.271Z,1018.23
2017-06-19T11:36:39.224Z,1018.16
2017-06-19T11:37:49.536Z,1018.22
2017-06-19T11:38:59.805Z,1018.18
2017-06-19T11:40:09.442Z,1018.15
2017-06-19T11:41:19.401Z,1018.18
2017-06-19T11:42:29.036Z,1018.19
2017-06-19T11:43:39.013Z,1018.16
2017-06-19T11:44:48.957Z,1018.18
2017-06-19T11:45:58.911Z,1018.09
2017-06-19T11:47:08.554Z,1018.09
2017-06-19T11:48:18.507Z,1018.07
2017-06-19T11:49:28.463Z,1018.04
2017-06-19T11:50:38.414Z,1018.02
2017-06-19T11:51:48.055Z,1018.03
2017-06-19T11:52:57.690Z,1018.01
2017-06-19T11:54:07.642Z,1018.03
2017-06-19T11:55:17.279Z,1018.03
2017-06-19T11:56:27.550Z,1017.97
2017-06-19T11:57:37.818Z,1018.02
2017-06-19T11:58:48.085Z,1018
2017-06-19T11:59:58.352Z,1017.99
2017-06-19T12:01:07.987Z,1017.97
2017-06-19T12:02:17.309Z,1017.89
2017-06-19T12:03:27.259Z,1017.92
2017-06-19T12:04:37.515Z,1017.87
2017-06-19T12:05:47.776Z,1017.79
2017-06-19T12:06:57.412Z,1017.78
2017-06-19T12:08:07.677Z,1017.78
2017-06-19T12:09:17.631Z,1017.68
2017-06-19T12:10:27.895Z,1017.7
2017-06-19T12:11:38.172Z,1017.7
2017-06-19T12:12:48.445Z,1017.69
2017-06-19T12:13:58.395Z,1017.68
2017-06-19T12:15:08.033Z,1017.59
2017-06-19T12:16:17.987Z,1017.59
2017-06-19T12:17:27.948Z,1017.63
2017-06-19T12:18:38.215Z,1017.55
2017-06-19T12:19:48.480Z,1017.58
2017-06-19T12:20:58.439Z,1017.56
2017-06-19T12:22:08.115Z,1017.57
2017-06-19T12:23:18.396Z,1017.56
2017-06-19T12:24:28.037Z,1017.55
2017-06-19T12:25:37.991Z,1017.55
2017-06-19T12:26:48.258Z,1017.5
2017-06-19T12:27:58.209Z,1017.51
2017-06-19T12:29:07.529Z,1017.52
2017-06-19T12:30:17.485Z,1017.5
2017-06-19T12:31:27.133Z,1017.49
2017-06-19T12:32:37.410Z,1017.48
2017-06-19T12:33:46.421Z,1017.46
2017-06-19T12:34:56.055Z,1017.48
2017-06-19T12:36:06.024Z,1017.42
2017-06-19T12:37:16.294Z,1017.42
2017-06-19T12:38:26.560Z,1017.41
2017-06-19T12:39:36.827Z,1017.4
2017-06-19T12:40:47.103Z,1017.39
2017-06-19T12:41:56.738Z,1017.34
2017-06-19T12:43:07.005Z,1017.36
2017-06-19T12:44:16.971Z,1017.32
2017-06-19T12:45:26.939Z,1017.32
2017-06-19T12:46:36.886Z,1017.29
2017-06-19T12:47:46.841Z,1017.29
2017-06-19T12:48:56.794Z,1017.23
2017-06-19T12:50:06.744Z,1017.23
2017-06-19T12:51:16.703Z,1017.26
2017-06-19T12:52:26.653Z,1017.21
2017-06-19T12:53:35.982Z,1017.25
2017-06-19T12:54:46.248Z,1017.21
2017-06-19T12:55:56.203Z,1017.22
2017-06-19T12:57:06.465Z,1017.15
2017-06-19T12:58:16.415Z,1017.15
2017-06-19T12:59:26.678Z,1017.15
2017-06-19T13:00:36.958Z,1017.05
2017-06-19T13:01:47.218Z,1017.03
2017-06-19T13:02:57.482Z,1017.07
2017-06-19T13:04:07.434Z,1017.04
2017-06-19T13:05:17.390Z,1017.08
2017-06-19T13:06:27.653Z,1017.06
2017-06-19T13:07:37.606Z,1017.04
2017-06-19T13:08:47.554Z,1016.99
2017-06-19T13:09:57.822Z,1016.96
2017-06-19T13:11:07.473Z,1016.95
2017-06-19T13:12:17.435Z,1016.93
2017-06-19T13:13:27.709Z,1016.93
2017-06-19T13:14:37.977Z,1016.94
2017-06-19T13:15:48.247Z,1016.92
2017-06-19T13:16:58.516Z,1016.89
2017-06-19T13:18:07.840Z,1016.93
2017-06-19T13:19:17.800Z,1016.93
2017-06-19T13:20:28.071Z,1016.91
2017-06-19T13:21:37.393Z,1016.92
2017-06-19T13:22:47.044Z,1016.89
2017-06-19T13:23:57.314Z,1016.84
2017-06-19T13:25:07.269Z,1016.77
2017-06-19T13:26:17.223Z,1016.83
2017-06-19T13:27:27.181Z,1016.8
2017-06-19T13:28:37.450Z,1016.76
2017-06-19T13:29:47.402Z,1016.74
2017-06-19T13:30:57.665Z,1016.74
2017-06-19T13:32:07.627Z,1016.73
2017-06-19T13:33:17.624Z,1016.73
2017-06-19T13:34:27.264Z,1016.72
2017-06-19T13:35:35.957Z,1016.76
2017-06-19T13:36:45.634Z,1016.71
2017-06-19T13:37:55.584Z,1016.68
2017-06-19T13:39:05.537Z,1016.68
2017-06-19T13:40:15.172Z,1016.67
2017-06-19T13:41:25.430Z,1016.67
2017-06-19T13:42:35.694Z,1016.61
2017-06-19T13:43:45.962Z,1016.64
2017-06-19T13:44:55.914Z,1016.6
2017-06-19T13:46:05.860Z,1016.56
2017-06-19T13:47:15.815Z,1016.54
2017-06-19T13:48:25.456Z,1016.55
2017-06-19T13:49:35.410Z,1016.53
2017-06-19T13:50:45.051Z,1016.57
2017-06-19T13:51:54.376Z,1016.48
2017-06-19T13:53:03.695Z,1016.5
2017-06-19T13:54:12.698Z,1016.54
2017-06-19T13:55:22.649Z,1016.5
2017-06-19T13:56:31.970Z,1016.54
2017-06-19T13:57:40.986Z,1016.53
2017-06-19T13:58:50.934Z,1016.45
2017-06-19T14:00:01.199Z,1016.43
2017-06-19T14:01:11.464Z,1016.4
2017-06-19T14:02:21.416Z,1016.39
2017-06-19T14:03:31.363Z,1016.36
2017-06-19T14:04:40.691Z,1016.37
2017-06-19T14:05:50.642Z,1016.39
2017-06-19T14:07:00.913Z,1016.34
2017-06-19T14:08:10.867Z,1016.35
2017-06-19T14:09:21.127Z,1016.34
2017-06-19T14:10:31.105Z,1016.3